Time;durP1;ratioP1;P1;durP2;ratioP2;P2;SDS_P1;SDS_P2;PMS_P1;PMS_P2;Temp;Humidity;BMP_temperature;BMP_pressure;BME280_temperature;BME280_humidity;BME280_pressure;Samples;Min_cycle;Max_cycle;Signal;HPM_P1;HPM_P2
2022/12/27 00:00:39;;;;;;;15.02;13.07;;;18.60;55.00;;;;;;5055769;28;20195;-88
2022/12/27 00:03:07;;;;;;;15.45;13.23;;;18.60;55.40;;;;;;5056419;28;20371;-87
2022/12/27 00:05:34;;;;;;;14.27;12.77;;;18.50;55.10;;;;;;5055754;28;20210;-88
2022/12/27 00:08:01;;;;;;;16.75;13.18;;;18.50;55.00;;;;;;5055697;28;20198;-88
2022/12/27 00:10:28;;;;;;;13.95;12.45;;;18.50;55.00;;;;;;5056001;28;20774;-88
2022/12/27 00:12:55;;;;;;;14.57;12.73;;;18.50;55.30;;;;;;5056169;28;20199;-88
2022/12/27 00:15:22;;;;;;;14.10;12.57;;;18.50;54.90;;;;;;5055668;28;20219;-88
2022/12/27 00:17:50;;;;;;;14.25;12.85;;;18.50;54.80;;;;;;5055948;28;20567;-88
2022/12/27 00:20:18;;;;;;;12.93;11.57;;;18.40;54.60;;;;;;5059175;28;20301;-88
2022/12/27 00:22:45;;;;;;;14.43;12.50;;;18.40;54.80;;;;;;5059490;28;20195;-88
2022/12/27 00:25:11;;;;;;;13.55;12.00;;;18.40;54.60;;;;;;5059440;28;20227;-88
2022/12/27 00:27:39;;;;;;;13.65;12.23;;;18.30;54.60;;;;;;5059602;28;20629;-88
2022/12/27 00:30:07;;;;;;;14.00;12.52;;;18.30;54.50;;;;;;5059548;28;20645;-88
2022/12/27 00:32:34;;;;;;;13.48;12.10;;;18.30;54.40;;;;;;5059561;28;20240;-88
2022/12/27 00:35:03;;;;;;;12.82;11.63;;;18.30;54.40;;;;;;5059457;28;20543;-88
2022/12/27 00:37:30;;;;;;;13.07;11.70;;;18.30;54.60;;;;;;5059734;28;20191;-88
2022/12/27 00:39:57;;;;;;;12.02;10.90;;;18.30;54.50;;;;;;5060383;28;20623;-88
2022/12/27 00:42:24;;;;;;;13.45;11.90;;;18.30;54.60;;;;;;5059243;28;20203;-88
2022/12/27 00:44:51;;;;;;;12.73;11.40;;;18.20;54.60;;;;;;5059356;28;20203;-88
2022/12/27 00:47:18;;;;;;;12.75;11.23;;;18.10;54.40;;;;;;5059624;28;20271;-88
2022/12/27 00:49:45;;;;;;;12.55;11.25;;;18.20;54.60;;;;;;5059074;28;20714;-88
2022/12/27 00:52:14;;;;;;;11.75;10.55;;;18.20;54.70;;;;;;5058927;28;20252;-88
2022/12/27 00:54:41;;;;;;;12.90;11.60;;;18.20;54.90;;;;;;5058712;28;20722;-88
2022/12/27 00:57:08;;;;;;;12.60;11.30;;;18.10;54.70;;;;;;5059073;28;20300;-88
2022/12/27 00:59:35;;;;;;;11.50;10.48;;;18.00;54.50;;;;;;5059388;28;20712;-88
2022/12/27 01:02:02;;;;;;;11.73;10.63;;;18.00;54.40;;;;;;5058982;28;20228;-88
2022/12/27 01:04:30;;;;;;;12.50;10.98;;;18.10;54.50;;;;;;5042639;28;20648;-88
2022/12/27 01:06:57;;;;;;;12.27;11.00;;;18.00;54.30;;;;;;5058506;28;20233;-87
2022/12/27 01:09:25;;;;;;;11.45;10.35;;;18.00;54.60;;;;;;5041822;28;20225;-87
2022/12/27 01:11:53;;;;;;;10.90;9.82;;;18.00;54.60;;;;;;5058386;28;20195;-88
2022/12/27 01:14:20;;;;;;;12.20;10.18;;;18.00;54.70;;;;;;5041942;28;20230;-87
2022/12/27 01:16:47;;;;;;;10.95;9.95;;;18.00;54.70;;;;;;5042044;28;20249;-85
2022/12/27 01:19:14;;;;;;;10.82;9.82;;;18.00;54.80;;;;;;5058354;28;20210;-85
2022/12/27 01:21:42;;;;;;;11.07;9.98;;;17.90;54.80;;;;;;5058064;28;20723;-85
2022/12/27 01:24:08;;;;;;;10.82;9.90;;;17.90;54.80;;;;;;5042069;28;20252;-85
2022/12/27 01:26:37;;;;;;;11.32;10.20;;;17.90;55.00;;;;;;5058171;28;20214;-85
2022/12/27 01:29:05;;;;;;;10.27;9.27;;;17.90;54.90;;;;;;5058191;28;20570;-85
2022/12/27 01:31:33;;;;;;;10.10;9.10;;;17.90;55.00;;;;;;5056797;28;20206;-85
2022/12/27 01:34:00;;;;;;;11.30;9.75;;;17.80;54.70;;;;;;5058107;28;20622;-85
2022/12/27 01:36:27;;;;;;;10.35;9.35;;;17.90;54.90;;;;;;5057537;28;20211;-85
2022/12/27 01:38:57;;;;;;;11.00;10.00;;;17.80;54.70;;;;;;5057926;28;20213;-85
2022/12/27 01:44:56;;;;;;;10.82;9.73;;;17.80;54.50;;;;;;5057755;28;20183;-85
2022/12/27 01:47:35;;;;;;;10.55;9.50;;;17.80;54.50;;;;;;5057621;28;20211;-85
2022/12/27 01:50:12;;;;;;;10.32;9.32;;;17.70;54.60;;;;;;5057541;28;20206;-87
2022/12/27 01:52:41;;;;;;;9.95;9.15;;;17.80;54.50;;;;;;5057460;28;20190;-88
2022/12/27 01:55:12;;;;;;;9.95;9.05;;;17.70;54.30;;;;;;5057412;28;20205;-87
2022/12/27 01:57:39;;;;;;;10.40;9.23;;;17.70;54.50;;;;;;5057841;28;20187;-87
2022/12/27 02:00:08;;;;;;;10.38;9.48;;;17.70;54.40;;;;;;5057761;28;20220;-87
2022/12/27 02:02:37;;;;;;;9.57;8.63;;;17.70;54.40;;;;;;5057704;28;20191;-87
2022/12/27 02:05:05;;;;;;;10.10;9.23;;;17.70;54.30;;;;;;5059055;28;20203;-87
2022/12/27 02:07:36;;;;;;;8.90;8.10;;;17.70;54.40;;;;;;5059149;28;20309;-87
2022/12/27 02:10:04;;;;;;;9.50;8.57;;;17.70;54.30;;;;;;5057768;28;20197;-88
2022/12/27 02:12:31;;;;;;;9.30;8.43;;;17.70;54.20;;;;;;5058191;28;20275;-88
2022/12/27 02:15:00;;;;;;;8.73;7.93;;;17.60;54.10;;;;;;5057120;28;20248;-88
2022/12/27 02:17:29;;;;;;;9.00;8.20;;;17.60;54.20;;;;;;5056912;28;20302;-88
2022/12/27 02:20:00;;;;;;;9.60;8.70;;;17.60;54.20;;;;;;5056771;28;20195;-88
2022/12/27 02:26:09;;;;;;;9.07;8.20;;;17.50;54.20;;;;;;5048530;28;20573;-87
2022/12/27 02:28:53;;;;;;;9.02;8.27;;;17.50;54.10;;;;;;5057561;28;20285;-87
2022/12/27 02:31:22;;;;;;;9.23;8.32;;;17.50;54.10;;;;;;5056798;28;20285;-88
2022/12/27 02:33:49;;;;;;;10.60;8.45;;;17.40;54.10;;;;;;5056690;28;20253;-88
2022/12/27 02:36:18;;;;;;;9.20;8.35;;;17.40;54.00;;;;;;5057032;28;20222;-88
2022/12/27 02:38:47;;;;;;;8.65;7.85;;;17.50;54.10;;;;;;5056577;28;20220;-88
2022/12/27 02:55:29;;;;;;;8.13;7.43;;;17.30;53.80;;;;;;5056115;28;20217;-87
2022/12/27 02:58:03;;;;;;;8.18;7.47;;;17.30;54.00;;;;;;5056294;28;20201;-87
2022/12/27 03:03:28;;;;;;;9.90;7.50;;;17.30;53.80;;;;;;5056163;28;20289;-87
2022/12/27 03:06:41;;;;;;;7.35;6.75;;;17.30;53.80;;;;;;5055980;28;20219;-87
2022/12/27 03:17:52;;;;;;;7.95;7.25;;;17.10;53.80;;;;;;5056333;28;20206;-87
2022/12/27 03:25:48;;;;;;;7.15;6.53;;;17.10;53.80;;;;;;5055929;28;20712;-87
2022/12/27 03:33:58;;;;;;;6.88;6.28;;;17.00;53.60;;;;;;5055603;28;20582;-87
2022/12/27 03:39:12;;;;;;;7.15;6.50;;;17.00;53.60;;;;;;5056020;28;20183;-87
2022/12/27 03:44:27;;;;;;;6.72;6.15;;;17.00;53.50;;;;;;5055642;28;20190;-87
2022/12/27 03:46:55;;;;;;;6.90;6.20;;;17.00;53.40;;;;;;5055699;28;20219;-87
2022/12/27 03:49:24;;;;;;;6.60;6.00;;;16.90;53.50;;;;;;5056689;28;20195;-87
2022/12/27 03:51:54;;;;;;;7.28;6.57;;;16.90;53.40;;;;;;5056110;28;20199;-87
2022/12/27 03:54:25;;;;;;;6.38;5.88;;;16.90;53.40;;;;;;5058757;28;20230;-87
2022/12/27 03:56:54;;;;;;;6.43;5.93;;;16.90;53.50;;;;;;5059790;28;20253;-87
2022/12/27 03:59:21;;;;;;;7.00;6.30;;;16.90;53.30;;;;;;5059914;28;20195;-87
2022/12/27 04:01:48;;;;;;;6.22;5.72;;;16.80;53.20;;;;;;5059519;28;20660;-87
2022/12/27 04:04:15;;;;;;;6.43;5.70;;;16.80;53.40;;;;;;5059438;28;20659;-87
2022/12/27 04:06:44;;;;;;;6.22;5.72;;;16.80;53.20;;;;;;5059588;28;20218;-87
2022/12/27 04:36:37;;;;;;;5.18;4.68;;;16.70;52.80;;;;;;5059886;28;20217;-87
2022/12/27 04:39:05;;;;;;;5.20;4.78;;;16.80;52.90;;;;;;5044841;28;20199;-87
2022/12/27 04:55:21;;;;;;;5.53;4.72;;;16.80;52.50;;;;;;5059531;28;20219;-87
2022/12/27 04:57:48;;;;;;;5.30;4.90;;;16.90;52.60;;;;;;5059153;28;20726;-86
2022/12/27 05:03:00;;;;;;;5.32;4.82;;;16.80;52.40;;;;;;5044402;28;20191;-86
2022/12/27 05:05:27;;;;;;;5.50;5.00;;;16.80;52.40;;;;;;5058601;28;20222;-86
2022/12/27 05:16:09;;;;;;;4.80;4.28;;;16.80;52.60;;;;;;5058954;28;20222;-86
2022/12/27 05:18:36;;;;;;;5.28;4.03;;;16.80;52.20;;;;;;5058566;28;20245;-86
2022/12/27 05:21:03;;;;;;;4.85;4.45;;;16.70;54.10;;;;;;5058779;28;20238;-85
2022/12/27 05:26:26;;;;;;;5.55;5.15;;;16.80;54.90;;;;;;5023482;28;20569;-84
2022/12/27 05:28:55;;;;;;;5.70;5.30;;;16.80;54.80;;;;;;5058143;28;20628;-85
2022/12/27 05:31:22;;;;;;;5.85;5.38;;;16.80;54.30;;;;;;5058280;28;20661;-85
2022/12/27 05:33:49;;;;;;;5.07;4.78;;;16.90;54.40;;;;;;5059522;28;20203;-85
2022/12/27 05:36:16;;;;;;;5.45;5.05;;;16.90;54.10;;;;;;5058900;28;20215;-85
2022/12/27 05:38:43;;;;;;;6.40;5.00;;;17.00;53.70;;;;;;5059350;28;20195;-84
2022/12/27 05:41:10;;;;;;;5.72;4.93;;;17.10;53.40;;;;;;5058180;28;20231;-84
2022/12/27 05:43:39;;;;;;;5.13;4.63;;;17.10;53.60;;;;;;5058081;28;20206;-85
2022/12/27 05:46:07;;;;;;;4.88;4.47;;;17.20;53.40;;;;;;5058185;28;20225;-85
2022/12/27 05:48:34;;;;;;;5.10;4.43;;;17.20;53.70;;;;;;5058268;28;20214;-84
2022/12/27 05:51:04;;;;;;;5.07;4.65;;;17.20;53.30;;;;;;5058357;28;20235;-85
2022/12/27 05:53:31;;;;;;;4.65;4.25;;;17.20;53.60;;;;;;5058230;28;20248;-85
2022/12/27 05:55:58;;;;;;;4.70;4.28;;;17.20;53.70;;;;;;5076272;28;20325;-85
2022/12/27 05:58:25;;;;;;;4.65;4.25;;;17.30;54.30;;;;;;5076922;28;20195;-85
2022/12/27 06:00:54;;;;;;;4.47;4.07;;;17.30;53.90;;;;;;5060539;28;20209;-85
2022/12/27 06:03:22;;;;;;;4.22;3.92;;;17.30;53.80;;;;;;5075101;28;20286;-85
2022/12/27 06:05:49;;;;;;;4.55;4.10;;;17.30;52.70;;;;;;5061752;28;20285;-85
2022/12/27 06:08:16;;;;;;;6.05;4.15;;;17.20;52.70;;;;;;5059785;28;20301;-85
2022/12/27 06:10:44;;;;;;;4.50;4.10;;;17.20;52.10;;;;;;5058901;28;20195;-84
2022/12/27 06:13:10;;;;;;;4.45;4.00;;;17.20;52.30;;;;;;5059124;28;20199;-85
2022/12/27 06:15:37;;;;;;;4.30;3.90;;;17.10;52.40;;;;;;5058140;28;20233;-87
2022/12/27 06:18:06;;;;;;;4.18;3.75;;;17.20;52.30;;;;;;5057927;28;20278;-87
2022/12/27 06:20:34;;;;;;;3.97;3.60;;;17.10;52.20;;;;;;5057598;28;20202;-85
2022/12/27 06:23:01;;;;;;;4.00;3.65;;;17.20;52.30;;;;;;5057192;28;20265;-85
2022/12/27 06:25:28;;;;;;;4.53;4.13;;;17.10;52.00;;;;;;5074063;28;20260;-84
2022/12/27 06:27:56;;;;;;;4.45;3.80;;;17.10;51.90;;;;;;5058135;28;20214;-86
2022/12/27 06:30:23;;;;;;;3.72;3.42;;;17.10;51.90;;;;;;5040556;28;20199;-86
2022/12/27 06:32:50;;;;;;;4.38;3.97;;;17.10;51.90;;;;;;5040451;28;20195;-85
2022/12/27 06:35:18;;;;;;;3.70;3.40;;;17.10;52.30;;;;;;5056717;28;20218;-86
2022/12/27 06:37:45;;;;;;;4.20;3.47;;;17.10;51.90;;;;;;5040616;28;20714;-85
2022/12/27 06:40:13;;;;;;;4.07;3.35;;;17.10;51.90;;;;;;5058128;28;20198;-86
2022/12/27 06:42:40;;;;;;;3.78;3.47;;;17.00;51.70;;;;;;5057405;28;20210;-86
2022/12/27 06:45:08;;;;;;;3.63;3.33;;;17.10;51.90;;;;;;5056650;28;20609;-86
2022/12/27 06:47:36;;;;;;;3.78;3.40;;;17.00;51.80;;;;;;5056520;28;20218;-86
2022/12/27 06:50:03;;;;;;;4.70;3.38;;;17.10;51.80;;;;;;5057303;28;20224;-86
2022/12/27 06:52:32;;;;;;;3.80;3.50;;;17.00;51.90;;;;;;5058250;28;20256;-86
2022/12/27 06:54:59;;;;;;;3.47;3.20;;;17.10;51.60;;;;;;5056632;28;20247;-86
2022/12/27 06:57:25;;;;;;;3.75;3.45;;;17.00;51.50;;;;;;5057381;28;20210;-86
2022/12/27 06:59:53;;;;;;;4.30;3.90;;;17.00;51.70;;;;;;5057332;28;20221;-86
2022/12/27 07:02:19;;;;;;;4.03;3.55;;;17.00;51.60;;;;;;5056605;28;20203;-85
2022/12/27 07:04:46;;;;;;;3.72;3.42;;;17.10;52.20;;;;;;5056701;28;20260;-85
2022/12/27 07:07:13;;;;;;;3.78;3.47;;;17.10;51.50;;;;;;5056366;28;20219;-85
2022/12/27 07:09:42;;;;;;;3.63;3.33;;;17.10;51.70;;;;;;5056328;28;20212;-85
2022/12/27 07:12:09;;;;;;;4.25;3.88;;;17.10;51.50;;;;;;5056467;28;20202;-85
2022/12/27 07:14:36;;;;;;;4.43;3.80;;;17.10;51.50;;;;;;5056654;28;20545;-85
2022/12/27 07:17:03;;;;;;;3.75;3.45;;;17.00;51.40;;;;;;5056731;28;20221;-85
2022/12/27 07:19:30;;;;;;;3.92;3.55;;;17.10;51.30;;;;;;5058316;28;20195;-87
2022/12/27 07:21:57;;;;;;;3.83;3.53;;;17.00;51.10;;;;;;5056869;28;20209;-89
2022/12/27 07:24:24;;;;;;;3.65;3.33;;;17.00;51.20;;;;;;5058747;28;20676;-89
2022/12/27 07:26:52;;;;;;;4.05;3.65;;;17.00;50.70;;;;;;5063555;22;20234;-58
2022/12/27 07:29:19;;;;;;;3.63;3.33;;;17.10;50.50;;;;;;5075348;28;20745;-57
2022/12/27 07:31:46;;;;;;;3.63;3.30;;;17.10;50.50;;;;;;5077377;28;20191;-57
2022/12/27 07:34:14;;;;;;;3.47;3.17;;;17.00;50.40;;;;;;5077305;28;20187;-58
2022/12/27 07:36:42;;;;;;;3.53;3.22;;;17.10;50.70;;;;;;5059048;28;20202;-58
2022/12/27 07:39:10;;;;;;;3.40;3.10;;;17.10;50.60;;;;;;5058920;28;20225;-57
2022/12/27 07:41:37;;;;;;;3.60;3.20;;;17.00;50.30;;;;;;5076736;28;20345;-58
2022/12/27 07:44:07;;;;;;;3.67;3.03;;;17.00;50.10;;;;;;5059099;28;20697;-57
2022/12/27 07:46:34;;;;;;;3.60;3.20;;;17.10;50.10;;;;;;5076911;28;20265;-57
2022/12/27 07:49:01;;;;;;;3.67;3.38;;;17.00;50.40;;;;;;5076704;28;20229;-58
2022/12/27 07:51:28;;;;;;;3.38;3.15;;;17.00;50.50;;;;;;5058571;28;20297;-58
2022/12/27 07:53:55;;;;;;;3.60;3.17;;;17.00;50.20;;;;;;5058606;28;20240;-57
2022/12/27 07:56:23;;;;;;;3.30;3.00;;;17.00;50.50;;;;;;5076938;28;20727;-57
2022/12/27 07:58:50;;;;;;;3.10;2.90;;;17.00;50.20;;;;;;5076470;28;20209;-57
2022/12/27 08:01:20;;;;;;;3.45;3.15;;;17.00;49.80;;;;;;5058650;28;20630;-57
2022/12/27 08:03:47;;;;;;;3.63;3.03;;;17.10;50.20;;;;;;5076578;28;20198;-58
2022/12/27 08:06:22;;;;;;;3.40;3.10;;;17.10;49.90;;;;;;5058678;28;20688;-57
2022/12/27 08:08:49;;;;;;;4.30;3.40;;;17.10;49.80;;;;;;5058354;28;20232;-57
2022/12/27 08:11:16;;;;;;;4.05;3.70;;;17.10;49.90;;;;;;5058271;28;20206;-57
2022/12/27 08:13:43;;;;;;;5.30;4.80;;;17.10;49.70;;;;;;5076370;28;20279;-58
2022/12/27 08:16:13;;;;;;;6.20;5.00;;;17.10;49.60;;;;;;5058439;28;20205;-57
2022/12/27 08:18:41;;;;;;;7.00;5.68;;;17.10;49.70;;;;;;5058941;28;20581;-59
2022/12/27 08:21:08;;;;;;;9.65;7.20;;;17.10;50.00;;;;;;5058491;28;20248;-58
2022/12/27 08:23:35;;;;;;;9.13;6.88;;;17.10;50.10;;;;;;5058600;28;20289;-58
2022/12/27 08:26:02;;;;;;;5.82;5.07;;;17.10;49.50;;;;;;5076540;28;20588;-57
2022/12/27 08:28:30;;;;;;;5.05;4.53;;;17.10;49.40;;;;;;5059043;28;20233;-58
2022/12/27 08:30:57;;;;;;;5.47;4.53;;;17.10;49.40;;;;;;5076224;28;20568;-58
2022/12/27 08:33:25;;;;;;;6.05;4.85;;;17.20;49.40;;;;;;5076037;28;20624;-57
2022/12/27 08:35:55;;;;;;;11.70;7.28;;;17.10;49.60;;;;;;5075891;28;20741;-55
2022/12/27 08:38:23;;;;;;;10.95;7.50;;;17.10;49.50;;;;;;5075631;28;20209;-55
2022/12/27 08:40:50;;;;;;;14.50;8.25;;;17.10;49.60;;;;;;5075535;28;20675;-55
2022/12/27 08:43:17;;;;;;;14.02;7.10;;;17.10;49.60;;;;;;5058232;28;20202;-55
2022/12/27 08:45:44;;;;;;;15.50;8.90;;;17.10;49.60;;;;;;5075458;28;20187;-55
2022/12/27 08:48:11;;;;;;;17.45;9.02;;;17.20;49.50;;;;;;5075425;28;20238;-55
2022/12/27 08:50:38;;;;;;;104.07;39.08;;;17.10;49.30;;;;;;5058009;28;20191;-55
2022/12/27 08:53:07;;;;;;;92.43;37.75;;;17.20;49.30;;;;;;5057368;28;20699;-55
2022/12/27 08:55:34;;;;;;;46.47;21.85;;;17.20;49.50;;;;;;5057492;28;20289;-55
2022/12/27 08:58:02;;;;;;;28.92;14.45;;;17.20;49.30;;;;;;5075135;28;20213;-55
2022/12/27 09:00:29;;;;;;;16.23;9.18;;;17.20;49.50;;;;;;5057322;28;20190;-57
2022/12/27 09:02:56;;;;;;;12.30;7.63;;;17.20;49.70;;;;;;5057248;28;20301;-56
2022/12/27 09:05:24;;;;;;;17.05;8.68;;;17.20;49.40;;;;;;5057210;28;20199;-57
2022/12/27 09:07:51;;;;;;;14.80;9.43;;;17.20;49.50;;;;;;5075363;28;20197;-56
2022/12/27 09:10:19;;;;;;;17.40;9.05;;;17.20;49.60;;;;;;5057034;28;20205;-56
2022/12/27 09:12:46;;;;;;;16.20;8.75;;;17.20;50.30;;;;;;5075135;28;20197;-57
2022/12/27 09:15:13;;;;;;;17.15;8.52;;;17.20;49.40;;;;;;5074905;28;20252;-57
2022/12/27 09:17:41;;;;;;;15.38;8.20;;;17.20;49.30;;;;;;5074821;28;20652;-57
2022/12/27 09:20:11;;;;;;;34.78;17.10;;;17.20;49.40;;;;;;5057002;28;20218;-56
2022/12/27 09:22:38;;;;;;;33.50;16.65;;;17.30;49.70;;;;;;5074812;28;20270;-57
2022/12/27 09:25:06;;;;;;;25.30;14.50;;;17.30;49.40;;;;;;5056700;28;20203;-56
2022/12/27 09:27:36;;;;;;;24.70;14.00;;;17.20;49.40;;;;;;5074886;28;20175;-57
2022/12/27 09:30:03;;;;;;;13.70;9.27;;;17.30;49.10;;;;;;5074927;28;20652;-56
2022/12/27 09:32:30;;;;;;;12.60;7.88;;;17.30;49.30;;;;;;5074853;28;20268;-57
2022/12/27 09:34:57;;;;;;;17.85;9.77;;;17.30;49.30;;;;;;5056895;28;20198;-56
2022/12/27 09:37:24;;;;;;;17.50;9.98;;;17.30;49.30;;;;;;5074512;28;20304;-57
2022/12/27 09:39:51;;;;;;;16.42;9.88;;;17.30;49.30;;;;;;5074443;28;20209;-56
2022/12/27 09:42:30;;;;;;;17.20;9.73;;;17.30;49.30;;;;;;5056432;28;20198;-57
2022/12/27 09:45:03;;;;;;;14.45;8.85;;;17.30;49.30;;;;;;5074508;28;20209;-56
2022/12/27 09:47:33;;;;;;;18.67;10.38;;;17.30;49.20;;;;;;5056563;28;20195;-57
2022/12/27 09:50:02;;;;;;;32.50;15.02;;;17.40;49.60;;;;;;5074459;28;20676;-56
2022/12/27 09:52:31;;;;;;;20.67;10.60;;;17.40;49.40;;;;;;5055502;28;20205;-56
2022/12/27 09:55:01;;;;;;;28.10;14.40;;;17.40;49.20;;;;;;5056758;28;20190;-56
2022/12/27 09:57:31;;;;;;;23.35;11.88;;;17.40;49.30;;;;;;5075110;28;20664;-57
2022/12/27 10:00:04;;;;;;;15.13;8.73;;;17.40;49.10;;;;;;5074161;28;20687;-56
2022/12/27 10:02:32;;;;;;;14.32;8.02;;;17.40;49.10;;;;;;5074204;28;20550;-56
2022/12/27 10:04:59;;;;;;;12.00;7.45;;;17.40;49.00;;;;;;5073974;28;20187;-56
2022/12/27 10:07:29;;;;;;;11.60;7.55;;;17.50;49.10;;;;;;5056072;28;20664;-56
2022/12/27 10:10:00;;;;;;;9.43;6.50;;;17.50;49.20;;;;;;5074070;28;20297;-57
2022/12/27 10:12:36;;;;;;;8.85;6.15;;;17.50;49.20;;;;;;5055861;28;20289;-56
2022/12/27 10:15:11;;;;;;;10.60;7.32;;;17.50;49.00;;;;;;5055868;28;20195;-57
2022/12/27 10:17:45;;;;;;;12.90;7.07;;;17.50;49.10;;;;;;5073924;28;20515;-56
2022/12/27 10:20:18;;;;;;;12.82;7.45;;;17.50;49.10;;;;;;5073954;28;20182;-56
2022/12/27 10:22:47;;;;;;;13.48;8.23;;;17.50;48.90;;;;;;5073728;28;20209;-57
2022/12/27 10:25:14;;;;;;;11.90;7.15;;;17.60;49.70;;;;;;5073624;28;20187;-56
2022/12/27 10:27:42;;;;;;;10.80;7.28;;;17.60;49.00;;;;;;5056574;28;20274;-56
2022/12/27 10:30:14;;;;;;;10.73;6.57;;;17.60;48.80;;;;;;5073275;28;20217;-56
2022/12/27 10:32:42;;;;;;;9.90;6.15;;;17.60;48.80;;;;;;5055499;28;20421;-56
2022/12/27 10:35:13;;;;;;;9.50;6.20;;;17.60;48.70;;;;;;5055517;28;20198;-56
2022/12/27 10:37:40;;;;;;;8.30;5.63;;;17.70;48.70;;;;;;5073485;28;20257;-56
2022/12/27 10:40:11;;;;;;;9.07;5.93;;;17.70;48.80;;;;;;5073153;28;20264;-57
2022/12/27 10:42:40;;;;;;;9.18;6.13;;;17.70;48.80;;;;;;5055420;28;20199;-57
2022/12/27 10:45:32;;;;;;;8.38;5.75;;;17.70;48.60;;;;;;5073212;28;20611;-56
2022/12/27 10:48:11;;;;;;;8.02;5.30;;;17.70;48.40;;;;;;5073297;28;20215;-56
2022/12/27 10:50:38;;;;;;;7.05;5.03;;;17.70;48.60;;;;;;5055126;28;20684;-56
2022/12/27 10:53:22;;;;;;;7.65;5.13;;;17.80;48.40;;;;;;5055546;28;20194;-57
2022/12/27 10:55:49;;;;;;;7.03;4.93;;;17.80;48.50;;;;;;5055998;28;20624;-57
2022/12/27 10:58:32;;;;;;;8.80;5.55;;;17.80;48.70;;;;;;5073615;28;20240;-56
2022/12/27 11:01:00;;;;;;;10.48;6.05;;;17.90;48.80;;;;;;5073687;28;20175;-57
2022/12/27 11:03:29;;;;;;;8.52;5.35;;;17.90;48.60;;;;;;5073356;28;20248;-56
2022/12/27 11:06:01;;;;;;;7.53;4.90;;;17.90;48.60;;;;;;5073165;28;20190;-56
2022/12/27 11:08:28;;;;;;;8.10;5.32;;;17.90;48.60;;;;;;5072938;28;20306;-56
2022/12/27 11:11:13;;;;;;;7.43;4.97;;;17.90;48.50;;;;;;5073130;28;20194;-57
2022/12/27 11:13:40;;;;;;;7.45;5.15;;;18.00;48.60;;;;;;5072990;28;20179;-56
2022/12/27 11:16:18;;;;;;;8.32;5.32;;;18.00;48.60;;;;;;5054806;28;20199;-57
2022/12/27 11:18:47;;;;;;;8.45;5.72;;;18.00;48.60;;;;;;5073092;28;20203;-56
2022/12/27 11:21:14;;;;;;;6.65;4.90;;;18.00;48.60;;;;;;5072784;28;20635;-56
2022/12/27 11:23:44;;;;;;;7.50;4.78;;;18.00;48.70;;;;;;5072788;28;20737;-57
2022/12/27 11:26:18;;;;;;;6.72;4.55;;;18.10;48.90;;;;;;5054706;28;20234;-57
2022/12/27 11:28:49;;;;;;;7.05;4.55;;;18.10;48.50;;;;;;5072740;28;20699;-57
2022/12/27 11:31:19;;;;;;;6.40;4.45;;;18.10;48.50;;;;;;5055494;28;20264;-57
2022/12/27 11:33:48;;;;;;;7.20;5.32;;;18.20;48.60;;;;;;5072778;28;20174;-57
2022/12/27 11:36:16;;;;;;;6.97;4.63;;;18.20;48.80;;;;;;5072665;28;20182;-57
2022/12/27 11:38:43;;;;;;;6.65;4.43;;;18.20;49.40;;;;;;5072557;28;20221;-57
2022/12/27 11:41:14;;;;;;;7.72;4.97;;;18.20;48.40;;;;;;5072897;28;20614;-57
2022/12/27 11:43:43;;;;;;;8.07;5.18;;;18.20;48.50;;;;;;5054718;28;20208;-57
2022/12/27 11:46:13;;;;;;;7.28;4.65;;;18.30;48.60;;;;;;5054859;28;20195;-57
2022/12/27 11:48:42;;;;;;;8.55;4.60;;;18.30;48.40;;;;;;5054508;28;20218;-57
2022/12/27 11:51:23;;;;;;;6.57;4.40;;;18.30;48.50;;;;;;5072548;28;20265;-57
2022/12/27 11:54:17;;;;;;;6.57;4.40;;;18.30;48.30;;;;;;5054537;28;20191;-57
2022/12/27 11:56:45;;;;;;;7.55;4.95;;;18.30;48.50;;;;;;5045074;28;20198;-57
2022/12/27 11:59:35;;;;;;;6.97;4.22;;;18.40;48.30;;;;;;5072338;28;20205;-57
2022/12/27 12:02:27;;;;;;;5.47;4.10;;;18.40;48.40;;;;;;5072377;28;20175;-57
2022/12/27 12:05:21;;;;;;;5.88;4.20;;;18.40;48.30;;;;;;5054560;28;20546;-57
2022/12/27 12:07:57;;;;;;;6.40;4.15;;;18.50;48.30;;;;;;5072527;28;20174;-56
2022/12/27 12:10:30;;;;;;;6.13;4.00;;;18.50;48.40;;;;;;5054231;28;20206;-57
2022/12/27 12:13:12;;;;;;;5.78;4.00;;;18.50;48.40;;;;;;5054338;28;20197;-57
2022/12/27 12:16:00;;;;;;;5.20;3.85;;;18.60;48.20;;;;;;5057893;28;20191;-57
2022/12/27 12:18:34;;;;;;;5.05;3.85;;;18.60;48.50;;;;;;5076529;28;20215;-56
2022/12/27 12:21:33;;;;;;;6.75;4.00;;;18.70;48.10;;;;;;5076570;28;20261;-57
2022/12/27 12:24:34;;;;;;;6.57;4.20;;;18.70;48.10;;;;;;5024697;28;20201;-57
2022/12/27 12:27:18;;;;;;;5.13;3.70;;;18.70;47.90;;;;;;5076717;28;20203;-57
2022/12/27 12:30:09;;;;;;;6.50;4.10;;;18.70;47.70;;;;;;5076257;28;20218;-57
2022/12/27 12:32:44;;;;;;;7.55;4.45;;;18.70;47.90;;;;;;5046245;28;20198;-57
2022/12/27 12:35:24;;;;;;;5.55;4.13;;;18.70;48.30;;;;;;5058505;28;20192;-57
2022/12/27 12:38:19;;;;;;;5.70;4.00;;;18.80;48.30;;;;;;5076341;28;20179;-57
2022/12/27 12:41:25;;;;;;;6.72;4.38;;;18.80;48.20;;;;;;5059150;28;20664;-57
2022/12/27 12:44:15;;;;;;;5.50;3.88;;;18.80;48.30;;;;;;5058240;28;20659;-60
2022/12/27 12:46:44;;;;;;;6.00;3.88;;;18.80;47.90;;;;;;5076467;28;20244;-57
2022/12/27 12:49:26;;;;;;;5.05;3.67;;;18.80;48.10;;;;;;5075989;28;20217;-57
2022/12/27 12:52:03;;;;;;;4.63;3.60;;;18.80;48.10;;;;;;5076399;28;20244;-57
2022/12/27 12:54:55;;;;;;;5.55;3.60;;;18.80;48.30;;;;;;5075916;28;20244;-58
2022/12/27 12:57:32;;;;;;;5.68;3.65;;;18.90;47.90;;;;;;5058197;28;20190;-57
2022/12/27 13:00:08;;;;;;;5.05;3.42;;;18.90;47.90;;;;;;5075800;28;20206;-58
2022/12/27 13:03:00;;;;;;;5.47;3.80;;;18.90;47.70;;;;;;5075726;28;20163;-58
2022/12/27 13:05:32;;;;;;;4.93;3.70;;;18.90;47.60;;;;;;5057757;28;20211;-56
2022/12/27 13:08:04;;;;;;;5.15;3.50;;;19.00;47.60;;;;;;5057536;28;20704;-56
2022/12/27 13:10:55;;;;;;;5.25;3.95;;;19.00;47.70;;;;;;5057453;28;20202;-57
2022/12/27 13:13:26;;;;;;;4.57;3.47;;;19.00;47.70;;;;;;5076103;28;20179;-57
2022/12/27 13:15:58;;;;;;;5.22;3.72;;;19.10;47.40;;;;;;5057620;28;20260;-57
2022/12/27 13:18:28;;;;;;;5.28;3.80;;;19.10;47.20;;;;;;5075529;28;20302;-57
2022/12/27 13:21:03;;;;;;;5.43;3.58;;;19.10;47.60;;;;;;5075688;28;20187;-57
2022/12/27 13:23:55;;;;;;;6.30;3.90;;;19.10;47.50;;;;;;5075653;28;20176;-58
2022/12/27 13:26:25;;;;;;;4.10;3.20;;;19.00;47.20;;;;;;5069187;28;20211;-57
2022/12/27 13:29:01;;;;;;;5.63;3.70;;;19.00;47.70;;;;;;5075402;28;20285;-57
2022/12/27 13:31:34;;;;;;;4.93;3.58;;;19.00;47.60;;;;;;5075202;28;20204;-58
2022/12/27 13:34:07;;;;;;;5.32;3.58;;;19.00;47.40;;;;;;5075033;28;20190;-58
2022/12/27 13:36:37;;;;;;;4.78;3.10;;;19.00;47.60;;;;;;5056596;28;20262;-55
2022/12/27 13:39:27;;;;;;;5.75;3.47;;;19.00;47.40;;;;;;5074619;28;20589;-57
2022/12/27 13:42:16;;;;;;;3.47;2.80;;;19.10;47.40;;;;;;5056367;28;20198;-55
2022/12/27 13:44:48;;;;;;;4.32;3.13;;;19.10;47.50;;;;;;5074476;28;20608;-56
2022/12/27 13:47:41;;;;;;;5.63;3.30;;;19.00;47.40;;;;;;5056285;28;20663;-56
2022/12/27 13:50:55;;;;;;;5.40;3.80;;;19.10;47.60;;;;;;5074227;28;20195;-56
2022/12/27 13:53:58;;;;;;;5.43;3.20;;;19.10;47.60;;;;;;5056339;28;20198;-56
2022/12/27 13:56:29;;;;;;;5.60;3.30;;;19.10;47.10;;;;;;5056239;28;20220;-55
2022/12/27 13:59:09;;;;;;;4.95;3.40;;;19.10;47.40;;;;;;5074299;28;20217;-56
2022/12/27 14:01:52;;;;;;;4.80;3.35;;;19.10;47.30;;;;;;5056210;28;20269;-55
2022/12/27 14:04:34;;;;;;;6.03;3.75;;;19.10;47.30;;;;;;5056104;28;20202;-55
2022/12/27 14:07:13;;;;;;;7.47;4.60;;;19.10;47.30;;;;;;5055979;28;20198;-55
2022/12/27 14:10:05;;;;;;;7.18;4.32;;;19.10;47.50;;;;;;5074215;28;20206;-55
2022/12/27 14:12:56;;;;;;;11.00;6.05;;;19.00;47.40;;;;;;5074301;28;20257;-56
2022/12/27 14:15:41;;;;;;;10.75;5.72;;;19.00;47.50;;;;;;5074290;28;20664;-58
2022/12/27 14:18:23;;;;;;;6.22;4.10;;;19.00;47.70;;;;;;5024055;28;20219;-56
2022/12/27 14:21:01;;;;;;;6.63;3.78;;;19.00;47.70;;;;;;5074312;28;20621;-56
2022/12/27 14:23:44;;;;;;;6.32;4.07;;;19.00;47.60;;;;;;5056954;28;20209;-56
2022/12/27 14:26:39;;;;;;;5.95;3.83;;;18.90;47.70;;;;;;5056116;28;20204;-55
2022/12/27 14:29:24;;;;;;;5.03;3.47;;;18.90;47.50;;;;;;5056271;28;20225;-56
2022/12/27 14:32:27;;;;;;;4.95;3.55;;;18.90;47.60;;;;;;5074242;28;20281;-56
2022/12/27 14:35:25;;;;;;;5.35;3.28;;;18.90;47.50;;;;;;5055816;28;20216;-55
2022/12/27 14:38:27;;;;;;;4.97;3.90;;;18.80;47.70;;;;;;5055665;28;20216;-56
2022/12/27 14:41:07;;;;;;;6.65;4.22;;;18.80;47.90;;;;;;5056654;28;20216;-55
2022/12/27 14:43:57;;;;;;;7.25;4.88;;;18.80;47.80;;;;;;5073446;28;20217;-56
2022/12/27 14:47:01;;;;;;;8.15;5.22;;;18.80;47.80;;;;;;5055560;28;20198;-55
2022/12/27 14:49:51;;;;;;;6.65;3.92;;;18.70;47.70;;;;;;5005633;28;20225;-57
2022/12/27 14:52:41;;;;;;;7.55;4.78;;;18.70;47.70;;;;;;5055655;28;20195;-57